sensor_id;sensor_type;location;lat;lon;timestamp;temperature;humidity
1297;DHT22;641;48.492;9.184;2023-09-19T18:19:35;16.90;90.70
1297;DHT22;641;48.492;9.184;2023-09-19T18:22:00;16.80;90.50
1297;DHT22;641;48.492;9.184;2023-09-19T18:24:28;16.80;90.40
1297;DHT22;641;48.492;9.184;2023-09-19T18:26:54;16.80;90.30
1297;DHT22;641;48.492;9.184;2023-09-19T18:29:19;16.80;90.00
1297;DHT22;641;48.492;9.184;2023-09-19T18:31:45;16.70;90.40
1297;DHT22;641;48.492;9.184;2023-09-19T18:34:11;16.80;89.80
1297;DHT22;641;48.492;9.184;2023-09-19T18:36:37;16.80;89.60
1297;DHT22;641;48.492;9.184;2023-09-19T18:39:03;16.70;90.10
1297;DHT22;641;48.492;9.184;2023-09-19T18:41:30;16.80;90.00
1297;DHT22;641;48.492;9.184;2023-09-19T18:43:56;16.70;90.30
1297;DHT22;641;48.492;9.184;2023-09-19T18:46:23;16.60;90.40
1297;DHT22;641;48.492;9.184;2023-09-19T18:48:52;16.60;90.80
1297;DHT22;641;48.492;9.184;2023-09-19T18:51:17;16.50;91.10
1297;DHT22;641;48.492;9.184;2023-09-19T18:53:44;16.40;91.40
1297;DHT22;641;48.492;9.184;2023-09-19T18:56:12;16.40;91.40
1297;DHT22;641;48.492;9.184;2023-09-19T18:58:50;16.30;91.30
1297;DHT22;641;48.492;9.184;2023-09-19T19:01:16;16.40;91.40
1297;DHT22;641;48.492;9.184;2023-09-19T19:03:42;16.30;91.30
1297;DHT22;641;48.492;9.184;2023-09-19T19:06:13;17.70;92.20
1297;DHT22;641;48.492;9.184;2023-09-19T19:08:41;16.30;91.10
1297;DHT22;641;48.492;9.184;2023-09-19T19:11:09;16.30;90.80
1297;DHT22;641;48.492;9.184;2023-09-19T19:13:35;16.40;90.80
1297;DHT22;641;48.492;9.184;2023-09-19T19:16:01;16.40;90.50
1297;DHT22;641;48.492;9.184;2023-09-19T19:18:28;16.30;91.00
1297;DHT22;641;48.492;9.184;2023-09-19T19:21:00;16.30;91.00
1297;DHT22;641;48.492;9.184;2023-09-19T19:23:26;16.10;91.20
1297;DHT22;641;48.492;9.184;2023-09-19T19:25:54;16.10;91.40
1297;DHT22;641;48.492;9.184;2023-09-19T19:28:22;15.90;91.80
1297;DHT22;641;48.492;9.184;2023-09-19T19:30:47;15.80;91.90
1297;DHT22;641;48.492;9.184;2023-09-19T19:35:40;15.70;92.10
1297;DHT22;641;48.492;9.184;2023-09-19T19:38:10;15.60;92.80
1297;DHT22;641;48.492;9.184;2023-09-19T19:40:36;15.60;92.60
1297;DHT22;641;48.492;9.184;2023-09-19T19:43:02;15.60;93.30
1297;DHT22;641;48.492;9.184;2023-09-19T19:45:28;15.60;93.30
1297;DHT22;641;48.492;9.184;2023-09-19T19:47:54;15.60;93.20
1297;DHT22;641;48.492;9.184;2023-09-19T19:50:19;15.60;93.10
1297;DHT22;641;48.492;9.184;2023-09-19T19:52:45;15.70;93.50
1297;DHT22;641;48.492;9.184;2023-09-19T19:55:15;15.60;93.10
1297;DHT22;641;48.492;9.184;2023-09-19T19:57:41;15.40;93.00
1297;DHT22;641;48.492;9.184;2023-09-19T20:00:07;15.40;93.40
1297;DHT22;641;48.492;9.184;2023-09-19T20:02:33;15.30;93.90
1297;DHT22;641;48.492;9.184;2023-09-19T20:05:00;15.10;94.80
1297;DHT22;641;48.492;9.184;2023-09-19T20:07:27;15.00;95.40
1297;DHT22;641;48.492;9.184;2023-09-19T20:09:57;15.00;95.90
1297;DHT22;641;48.492;9.184;2023-09-19T20:12:22;14.90;96.00
1297;DHT22;641;48.492;9.184;2023-09-19T20:14:48;15.70;97.10
1297;DHT22;641;48.492;9.184;2023-09-19T20:17:13;14.80;96.80
1297;DHT22;641;48.492;9.184;2023-09-19T20:19:39;14.80;96.70
1297;DHT22;641;48.492;9.184;2023-09-19T20:22:05;14.70;97.00
1297;DHT22;641;48.492;9.184;2023-09-19T20:24:34;14.70;96.70
1297;DHT22;641;48.492;9.184;2023-09-19T20:27:02;14.70;96.70
1297;DHT22;641;48.492;9.184;2023-09-19T20:29:33;14.80;96.50
1297;DHT22;641;48.492;9.184;2023-09-19T20:31:59;14.80;96.70
1297;DHT22;641;48.492;9.184;2023-09-19T20:34:26;14.70;96.50
1297;DHT22;641;48.492;9.184;2023-09-19T20:36:52;14.70;96.40
1297;DHT22;641;48.492;9.184;2023-09-19T20:39:17;14.70;96.60
1297;DHT22;641;48.492;9.184;2023-09-19T20:41:48;14.60;97.00
1297;DHT22;641;48.492;9.184;2023-09-19T20:44:13;14.50;97.50
1297;DHT22;641;48.492;9.184;2023-09-19T20:46:39;14.40;97.90
1297;DHT22;641;48.492;9.184;2023-09-19T20:49:04;14.50;98.10
1297;DHT22;641;48.492;9.184;2023-09-19T20:51:30;14.40;98.50
1297;DHT22;641;48.492;9.184;2023-09-19T20:54:00;14.30;98.30
1297;DHT22;641;48.492;9.184;2023-09-19T20:56:26;14.30;97.80
1297;DHT22;641;48.492;9.184;2023-09-19T20:58:51;14.30;98.10
1297;DHT22;641;48.492;9.184;2023-09-19T21:01:17;14.30;98.60
1297;DHT22;641;48.492;9.184;2023-09-19T21:03:44;14.30;99.10
1297;DHT22;641;48.492;9.184;2023-09-19T21:06:10;14.20;99.10
1297;DHT22;641;48.492;9.184;2023-09-19T21:08:36;14.10;99.40
1297;DHT22;641;48.492;9.184;2023-09-19T21:13:37;14.10;99.90
1297;DHT22;641;48.492;9.184;2023-09-19T21:16:05;14.00;99.70
1297;DHT22;641;48.492;9.184;2023-09-19T21:18:31;14.00;99.90
1297;DHT22;641;48.492;9.184;2023-09-19T21:21:01;13.90;99.90
1297;DHT22;641;48.492;9.184;2023-09-19T21:23:31;14.00;99.90
1297;DHT22;641;48.492;9.184;2023-09-19T21:25:57;14.00;99.90
1297;DHT22;641;48.492;9.184;2023-09-19T21:28:22;14.00;99.90
1297;DHT22;641;48.492;9.184;2023-09-19T21:30:59;13.90;99.90
1297;DHT22;641;48.492;9.184;2023-09-19T21:33:29;13.90;99.90
1297;DHT22;641;48.492;9.184;2023-09-19T21:35:56;13.90;99.90
1297;DHT22;641;48.492;9.184;2023-09-19T21:38:22;13.80;99.90
1297;DHT22;641;48.492;9.184;2023-09-19T21:40:47;13.70;99.90
1297;DHT22;641;48.492;9.184;2023-09-19T21:43:13;13.70;99.90
1297;DHT22;641;48.492;9.184;2023-09-19T21:45:39;14.20;99.90
1297;DHT22;641;48.492;9.184;2023-09-19T21:48:05;13.70;99.90
1297;DHT22;641;48.492;9.184;2023-09-19T21:50:30;13.70;99.90
1297;DHT22;641;48.492;9.184;2023-09-19T21:52:59;13.70;99.90
1297;DHT22;641;48.492;9.184;2023-09-19T21:55:28;13.80;99.90
1297;DHT22;641;48.492;9.184;2023-09-19T21:57:54;13.60;99.90
1297;DHT22;641;48.492;9.184;2023-09-19T22:00:20;13.60;99.90
1297;DHT22;641;48.492;9.184;2023-09-19T22:03:05;13.70;99.90
1297;DHT22;641;48.492;9.184;2023-09-19T22:05:34;13.60;99.90
1297;DHT22;641;48.492;9.184;2023-09-19T22:08:09;13.60;99.90
1297;DHT22;641;48.492;9.184;2023-09-19T22:10:42;13.60;99.90
1297;DHT22;641;48.492;9.184;2023-09-19T22:13:09;13.60;99.90
1297;DHT22;641;48.492;9.184;2023-09-19T22:15:34;13.60;99.90
1297;DHT22;641;48.492;9.184;2023-09-19T22:18:11;13.60;99.90
1297;DHT22;641;48.492;9.184;2023-09-19T22:20:38;13.60;99.90
1297;DHT22;641;48.492;9.184;2023-09-19T22:23:10;13.60;99.90
1297;DHT22;641;48.492;9.184;2023-09-19T22:25:37;13.60;99.90
1297;DHT22;641;48.492;9.184;2023-09-19T22:28:04;13.60;99.90
1297;DHT22;641;48.492;9.184;2023-09-19T22:30:37;13.60;99.90
1297;DHT22;641;48.492;9.184;2023-09-19T22:33:12;13.50;99.90
1297;DHT22;641;48.492;9.184;2023-09-19T22:35:43;13.50;99.90
1297;DHT22;641;48.492;9.184;2023-09-19T22:38:16;13.40;99.90
1297;DHT22;641;48.492;9.184;2023-09-19T22:40:46;13.50;99.90
1297;DHT22;641;48.492;9.184;2023-09-19T22:43:19;13.50;99.90
1297;DHT22;641;48.492;9.184;2023-09-19T22:45:47;13.50;99.90
1297;DHT22;641;48.492;9.184;2023-09-19T22:48:13;13.50;99.90
1297;DHT22;641;48.492;9.184;2023-09-19T22:50:40;13.50;99.90
1297;DHT22;641;48.492;9.184;2023-09-19T22:53:11;13.40;99.90
1297;DHT22;641;48.492;9.184;2023-09-19T22:55:41;13.40;99.90
1297;DHT22;641;48.492;9.184;2023-09-19T22:58:06;13.30;99.90
1297;DHT22;641;48.492;9.184;2023-09-19T23:00:39;13.20;99.90
1297;DHT22;641;48.492;9.184;2023-09-19T23:03:08;13.20;99.90
1297;DHT22;641;48.492;9.184;2023-09-19T23:05:38;13.20;99.90
1297;DHT22;641;48.492;9.184;2023-09-19T23:08:08;13.30;99.90
1297;DHT22;641;48.492;9.184;2023-09-19T23:10:42;13.30;99.90
1297;DHT22;641;48.492;9.184;2023-09-19T23:13:16;13.30;99.90
1297;DHT22;641;48.492;9.184;2023-09-19T23:15:53;13.30;99.90
1297;DHT22;641;48.492;9.184;2023-09-19T23:18:22;13.30;99.90
1297;DHT22;641;48.492;9.184;2023-09-19T23:20:48;13.10;99.90
1297;DHT22;641;48.492;9.184;2023-09-19T23:23:15;13.10;99.90
1297;DHT22;641;48.492;9.184;2023-09-19T23:25:43;13.10;99.90
1297;DHT22;641;48.492;9.184;2023-09-19T23:28:14;12.90;99.90
1297;DHT22;641;48.492;9.184;2023-09-19T23:30:42;13.00;99.90
1297;DHT22;641;48.492;9.184;2023-09-19T23:33:08;12.90;99.90
1297;DHT22;641;48.492;9.184;2023-09-19T23:35:36;12.90;99.90
1297;DHT22;641;48.492;9.184;2023-09-19T23:38:02;12.90;99.90
1297;DHT22;641;48.492;9.184;2023-09-19T23:40:29;12.90;99.90
1297;DHT22;641;48.492;9.184;2023-09-19T23:42:56;12.80;99.90
1297;DHT22;641;48.492;9.184;2023-09-19T23:45:22;12.90;99.90
1297;DHT22;641;48.492;9.184;2023-09-19T23:47:52;12.90;99.90
1297;DHT22;641;48.492;9.184;2023-09-19T23:50:18;12.80;99.90
1297;DHT22;641;48.492;9.184;2023-09-19T23:52:50;12.80;99.90
1297;DHT22;641;48.492;9.184;2023-09-19T23:55:16;12.70;99.90
1297;DHT22;641;48.492;9.184;2023-09-19T23:57:43;12.70;99.90
